Stewart J. Cort — WDC6055 — position and weather

sailwx.info

Track history (hours):
 
Tides and Currents Weather Stations Pressure Air Temp Water Temp Dewpoint Dewpoint Depression Visibility Wind Speed Wind Dir Waves Ship Positions

Stewart J. Cort

Owner: THE INTERLAKE STEAMSHIP COMPANY, Middleburg Heights, OH. More information available from US FCC via Universal Licensing System and Coast Guard Vessel Documentation Center.

Last reported at 2018-May-20 16:00 UTC. Time now 2018-May-20 17:18 UTC.
Position N 41°36' W 087°06'.

Length 305 m; draft 8.6 m.

Type: Cargo ship. MMSI: 367050550.

Wind from 010 at 11 knots

Barometer 1022.8 mb
Air temperature 6.5 ° C
Water temperature 12.2 ° C

Date/timePositionNaut miles runAvg speedWind from/ knotsBaromVisibWave heightAir tempDewpointWater temp
2018-May-20 16:00N 41°36' W 087°06'0 0.0 010 / 111022.8 6.5 12.2
2018-May-20 15:00N 41°36' W 087°06'0 0.0 010 / 91022.5 6.9 12.1
2018-May-20 14:00N 41°36' W 087°06'0 0.0 020 / 51022.5 7.0 12.2
2018-May-20 13:00N 41°36' W 087°06'0 0.0 010 / 101021.1 6.9 12.2
2018-May-20 12:00N 41°36' W 087°06'0 0.0 020 / 71020.8 7.5 12.2
2018-May-20 11:00N 41°36' W 087°06'0 0.0 350 / 91020.1 7.4 12.1
2018-May-20 10:00N 41°36' W 087°06'0 0.0 340 / 101019.4 7.9 12.0
2018-May-20 09:00N 41°36' W 087°06'0 0.0 020 / 121018.8 8.7 11.9
2018-May-20 08:00N 41°36' W 087°06'0 0.0 010 / 61018.4 8.9 11.8
2018-May-20 07:00N 41°36' W 087°06'0 0.0 040 / 101018.4 9.8 11.6
2018-May-20 06:00N 41°36' W 087°06'0 0.0 030 / 81017.7 12.0 11.3
2018-May-20 05:00N 41°36' W 087°06'0 0.0 050 / 81016.4 15.9 11.2
2018-May-20 04:00N 41°36' W 087°06'0 0.0 320 / 21017.1 16.0 11.2
2018-May-20 03:00N 41°36' W 087°06'0 0.0 170 / 31016.7 15.9 11.1
2018-May-20 02:00N 41°36' W 087°06'6 6.0 070 / 51015.4 15.7 12.7
2018-May-20 01:00N 41°42' W 087°06'1212.0 070 / 101014.7 13.0 9.9
2018-May-20 00:00N 41°54' W 087°06'10312.9 080 / 61014.3 11.0 5.7
2018-May-19 16:00N 43°36' W 086°48'1212.0 020 / 121011.3 5.9 3.4
2018-May-19 15:00N 43°48' W 086°48'1312.8 020 / 81012.7 0.5 5.5 3.4
2018-May-19 14:00N 44°00' W 086°42'1918.5 020 / 101012.7 5.5 3.4
2018-May-19 13:00N 44°18' W 086°36'1312.7 010 / 121013.0 5.2 3.3
2018-May-19 12:00N 44°30' W 086°30'1212.0 340 / 131013.3 6.0 3.5
2018-May-19 11:00N 44°42' W 086°30'1312.7 070 / 101013.0 9.1 3.9
2018-May-19 10:00N 44°54' W 086°24'1312.7 110 / 101013.7 9.3 3.5
2018-May-19 09:00N 45°06' W 086°18'1713.4 090 / 111014.310.8 10.3 3.2
2018-May-19 07:46N 45°22' W 086°12'1213.0
2018-May-19 06:50N 45°33' W 086°07'512.5
2018-May-19 06:29N 45°37' W 086°04'613.0
2018-May-19 06:00N 45°42' W 085°58'1103.2
2018-May-19 06:00N 45°42' W 086°00'714.9 110 / 161018.4 8.3 3.2
2018-May-19 05:30N 45°47' W 085°52'612.8
2018-May-19 05:00N 45°50' W 085°44'3279.4
2018-May-19 05:00N 45°48' W 085°48'1020.1 120 / 111019.8 9.5 5.5
2018-May-19 04:30N 45°53' W 085°36'612.5
2018-May-19 04:00N 45°54' W 085°27'2147.8
2018-May-19 04:00N 45°54' W 085°30'917.7 100 / 181020.1 9.8 5.9
2018-May-19 03:30N 45°53' W 085°18'612.9
2018-May-19 03:00N 45°52' W 085°09'3207.2
2018-May-19 03:00N 45°54' W 085°12'919.3 090 / 181020.8 9.3 6.3
2018-May-19 02:30N 45°51' W 084°59'713.1
2018-May-19 02:00N 45°50' W 084°50'3212.7
2018-May-19 02:00N 45°48' W 084°54'919.0 100 / 171021.1 10.0 6.1
2018-May-19 01:30N 45°49' W 084°41'4 8.7
2018-May-19 01:00N 45°51' W 084°35'3335.9
2018-May-19 01:00N 45°48' W 084°36'816.1 110 / 131021.8 8.3 4.5
2018-May-19 00:30N 45°52' W 084°27'612.1
2018-May-19 00:00N 45°54' W 084°18'1142.0 120 / 161022.8 6.4 2.7
2018-May-18 23:59N 45°53' W 084°17'712.9
2018-May-18 23:29N 45°54' W 084°07'510.7
2018-May-18 23:00N 45°54' W 084°00'7 7.3 100 / 121023.8 6.7 5.7
2018-May-18 22:00N 46°00' W 083°54'0 0.0 130 / 141024.2 13.8 7.0
2018-May-18 21:00N 46°00' W 083°54'7 7.3 120 / 161024.8 12.8 8.3
2018-May-18 20:00N 46°06' W 084°00'1010.3 140 / 141025.9 12.0 8.0
2018-May-18 19:00N 46°12' W 084°12'6 6.0 120 / 171025.9 12.6 5.8
2018-May-18 18:00N 46°18' W 084°12'1312.7 120 / 171026.9 12.6 4.3
2018-May-18 17:00N 46°30' W 084°18'0 0.0 130 / 181026.9 11.9 3.2
2018-May-18 16:00N 46°30' W 084°18'4 4.1 130 / 141027.6 12.4 3.8
2018-May-18 15:00N 46°30' W 084°24'0 0.0 110 / 181028.1 11.8 3.2
2018-May-18 14:00N 46°30' W 084°24'4 4.1 100 / 161028.8 11.1 3.1
2018-May-18 13:00N 46°30' W 084°30'8 8.3 130 / 181028.4 10.1 1.9
2018-May-18 12:00N 46°30' W 084°42'1312.7 120 / 201027.1 6.2 1.0
2018-May-18 11:00N 46°42' W 084°48'1413.7 110 / 111026.8 5.7 0.9
2018-May-18 10:00N 46°48' W 085°06'1010.2 120 / 91026.1 3.5 1.9
2018-May-18 09:00N 46°54' W 085°18'1413.7 110 / 91026.110.8 4.1 1.6
2018-May-18 08:00N 47°00' W 085°36'6613.1 110 / 101025.4 2.7 1.5
2018-May-18 03:00N 47°24' W 087°06'1413.6 050 / 121025.4 2.6 1.8
2018-May-18 02:00N 47°30' W 087°24'1212.2 020 / 111025.4 2.8 2.0
2018-May-18 01:00N 47°30' W 087°42'1413.5 030 / 101025.4 3.6 2.3
2018-May-18 00:00N 47°36' W 088°00'1212.1 060 / 101025.7 3.6 1.7
2018-May-17 23:00N 47°36' W 088°18'1413.5 060 / 111026.1 3.2 1.6
2018-May-17 22:00N 47°30' W 088°36'1616.2 060 / 131025.7 3.3 1.7
2018-May-17 21:00N 47°30' W 089°00'1413.6 090 / 221025.4 3.6 2.0
2018-May-17 20:00N 47°24' W 089°18'1212.2 050 / 171025.7 3.5 1.9
2018-May-17 19:00N 47°24' W 089°36'1413.6 050 / 181025.7 3.4 2.0
2018-May-17 18:00N 47°18' W 089°54'1212.2 050 / 161026.410.8 3.5 2.1
2018-May-17 17:00N 47°18' W 090°12'1413.6 040 / 171026.1 3.4 2.2
2018-May-17 16:00N 47°12' W 090°30'1212.2 040 / 161026.1 3.4 2.7
2018-May-17 15:00N 47°12' W 090°48'1010.1 060 / 171024.7 3.4 2.9
2018-May-17 14:00N 47°06' W 091°00'1413.7 050 / 181024.7 3.2 2.7
2018-May-17 13:00N 47°00' W 091°18'1214.6 050 / 161024.0 2.9 2.5
2018-May-17 12:12N 46°54' W 091°32'313.3
2018-May-17 12:00N 46°54' W 091°36'247.0 050 / 201023.0 3.1 2.6
2018-May-17 11:57N 46°52' W 091°36'512.4
2018-May-17 11:30N 46°49' W 091°43'612.3
2018-May-17 11:00N 46°46' W 091°51'3214.8
2018-May-17 11:00N 46°48' W 091°48'917.7 050 / 231022.4 4.0 4.5
2018-May-17 10:30N 46°43' W 091°59'2 3.3
2018-May-17 10:00N 46°42' W 092°00'1 6.6 040 / 141022.4 5.0 11.9
2018-May-17 09:52N 46°42' W 092°01'0 0.0
2018-May-17 09:28N 46°42' W 092°01'1 1.6
2018-May-17 09:00N 46°42' W 092°00'139.5 250 / 41021.3 5.6 13.8
2018-May-17 08:58N 46°42' W 092°01'0 0.0
2018-May-17 08:19N 46°42' W 092°01'1 2.4
2018-May-17 08:00N 46°42' W 092°00'138.3 280 / 41020.7 5.6 12.7
2018-May-17 07:58N 46°42' W 092°01'0 0.0
2018-May-17 07:28N 46°42' W 092°01'1 1.6
2018-May-17 07:00N 46°42' W 092°00'139.1 310 / 31021.3 5.9 13.9
2018-May-17 06:58N 46°42' W 092°01'0 0.0
2018-May-17 06:28N 46°42' W 092°01'1 1.6
2018-May-17 06:00N 46°42' W 092°00'111.3 210 / 31021.3 6.4 13.3
2018-May-17 05:55N 46°42' W 092°01'0 0.0
2018-May-17 05:28N 46°42' W 092°01'1 1.6
2018-May-17 05:00N 46°42' W 092°00'140.4 140 / 31020.0 7.1 13.0
2018-May-17 04:58N 46°42' W 092°01'0 0.0
2018-May-17 04:28N 46°42' W 092°01'1 1.6
2018-May-17 04:00N 46°42' W 092°00'140.8 260 / 31019.6 7.3 12.9
2018-May-17 03:58N 46°42' W 092°01'0 0.0
2018-May-17 03:28N 46°42' W 092°01'1 1.6
2018-May-17 03:00N 46°42' W 092°00'138.0 340 / 21019.0 7.7 13.0
2018-May-17 02:58N 46°42' W 092°01'0 0.0
2018-May-17 02:28N 46°42' W 092°01'1 1.6
2018-May-17 02:00N 46°42' W 092°00'140.6 350 / 31017.9 8.0 13.1
2018-May-17 01:58N 46°42' W 092°01'0 0.0
2018-May-17 01:28N 46°42' W 092°01'1 1.6
2018-May-17 01:00N 46°42' W 092°00'137.7 080 / 31016.9 8.3 13.0
2018-May-17 00:58N 46°42' W 092°01'0 0.0
2018-May-17 00:28N 46°42' W 092°01'1 1.6
2018-May-17 00:00N 46°42' W 092°00'141.0 290 / 31015.6 9.4 12.6
2018-May-16 23:58N 46°42' W 092°01'0 0.0
2018-May-16 23:28N 46°42' W 092°01'1 1.6
2018-May-16 23:00N 46°42' W 092°00'139.9 260 / 21014.2 10.3 11.9
2018-May-16 22:58N 46°42' W 092°01'0 0.0
2018-May-16 22:28N 46°42' W 092°01'1 1.6
2018-May-16 22:00N 46°42' W 092°00'138.8 340 / 71011.5 28.1 11.6
2018-May-16 21:58N 46°42' W 092°01'0 0.0
2018-May-16 21:28N 46°42' W 092°01'1 1.6
2018-May-16 21:00N 46°42' W 092°00'1 6.5 330 / 31011.5 29.1 11.3
2018-May-16 20:52N 46°42' W 092°01'0 0.0
2018-May-16 20:28N 46°42' W 092°01'1 1.6
2018-May-16 20:00N 46°42' W 092°00'137.1 010 / 71011.2 29.7 10.6
2018-May-16 19:58N 46°42' W 092°01'0 0.0
2018-May-16 19:25N 46°42' W 092°01'1 1.8
2018-May-16 19:00N 46°42' W 092°00'140.4 310 / 61011.5 29.6 10.6
2018-May-16 18:58N 46°42' W 092°01'0 0.0
2018-May-16 18:28N 46°42' W 092°01'1 1.6
2018-May-16 18:00N 46°42' W 092°00'137.2 260 / 91011.5 29.3 10.5
2018-May-16 17:58N 46°42' W 092°01'0 0.0
2018-May-16 17:28N 46°42' W 092°01'1 1.6
2018-May-16 17:00N 46°42' W 092°00'138.7 210 / 81011.9 28.5 10.4
2018-May-16 16:58N 46°42' W 092°01'0 0.0
2018-May-16 16:28N 46°42' W 092°01'1 1.6
2018-May-16 16:00N 46°42' W 092°00'111.2 300 / 111012.2 26.9 10.6
2018-May-16 15:55N 46°42' W 092°01'0 0.0
2018-May-16 15:28N 46°42' W 092°01'1 1.6
2018-May-16 15:00N 46°42' W 092°00'137.0 190 / 61012.5 25.0 10.5
2018-May-16 14:58N 46°42' W 092°01'0 0.0
2018-May-16 14:25N 46°42' W 092°01'1 1.8
2018-May-16 14:00N 46°42' W 092°00'135.1 230 / 81012.5 21.4 10.2
2018-May-16 13:58N 46°42' W 092°01'0 0.0
2018-May-16 13:28N 46°42' W 092°01'1 1.6
2018-May-16 13:00N 46°42' W 092°00'137.2 230 / 81012.9 17.9 9.8
2018-May-16 12:58N 46°42' W 092°01'0 0.0
2018-May-16 12:28N 46°42' W 092°01'1 1.6
2018-May-16 12:00N 46°42' W 092°00'135.8 230 / 71012.9 14.4 9.8
2018-May-16 11:58N 46°42' W 092°01'0 0.0
2018-May-16 11:28N 46°42' W 092°01'1 1.6
2018-May-16 11:00N 46°42' W 092°00'136.2 220 / 61012.9 11.8 9.8
2018-May-16 10:58N 46°42' W 092°01'0 0.0
2018-May-16 10:28N 46°42' W 092°01'0 0.0
2018-May-16 10:00N 46°42' W 092°01'152.9
2018-May-16 10:00N 46°42' W 092°00'1 1.5 220 / 41012.9 9.0 10.1
2018-May-16 09:30N 46°43' W 092°00'5 9.2
2018-May-16 09:00N 46°45' W 091°54'3240.4
2018-May-16 09:00N 46°42' W 091°54'4 9.1 220 / 41012.9 6.1 4.7
2018-May-16 08:30N 46°46' W 091°51'611.1
2018-May-16 08:00N 46°48' W 091°44'3234.5
2018-May-16 08:00N 46°48' W 091°48'1019.9 210 / 101012.5 4.3 1.9
2018-May-16 07:31N 46°51' W 091°35'815.2
2018-May-16 07:00N 46°54' W 091°24'210.8 240 / 71012.9 2.3 1.4
2018-May-16 06:48N 46°55' W 091°22'413.9
2018-May-16 06:30N 46°57' W 091°16'713.9
2018-May-16 06:00N 47°00' W 091°07'155.8
2018-May-16 06:00N 47°00' W 091°06'1413.7 230 / 71013.5 2.1 1.5
2018-May-16 05:00N 47°06' W 090°48'1413.6 190 1013.5 2.7 2.9
2018-May-16 04:00N 47°12' W 090°30'1212.2 120 / 41014.6 2.4 2.0
2018-May-16 03:00N 47°12' W 090°12'1717.4 330 / 31014.9 2.3 2.1
2018-May-16 02:00N 47°18' W 089°48'1212.2 120 / 71013.9 2.3 1.8
2018-May-16 01:00N 47°18' W 089°30'1413.6 070 / 31015.6 3.1 1.4
2018-May-16 00:00N 47°24' W 089°12'1616.2 080 / 91016.3 4.0 1.7
2018-May-15 23:00N 47°24' W 088°48'1413.6 070 / 121017.3 3.7 1.6
2018-May-15 22:00N 47°30' W 088°30'1212.2 070 / 131018.6 4.1 1.4
2018-May-15 21:00N 47°30' W 088°12'1616.2 080 / 151019.3 2.9 1.5
2018-May-15 20:00N 47°30' W 087°48'1413.6 100 / 41021.0 3.3 1.9
2018-May-15 19:00N 47°24' W 087°30'1212.2 330 / 31021.3 3.1 1.4
2018-May-15 18:00N 47°24' W 087°12'1413.6 340 / 51021.7 3.0 1.3
2018-May-15 17:00N 47°18' W 086°54'1717.4 330 / 71021.7 3.0 1.4
2018-May-15 16:00N 47°12' W 086°30'1413.6 040 / 31020.7 3.4 1.2
2018-May-15 15:00N 47°06' W 086°12'3912.9 050 / 61019.6 4.3 1.3
2018-May-15 12:00N 46°54' W 085°18'1413.7 020 / 231014.6 5.1 1.6
2018-May-15 11:00N 46°48' W 085°00'1514.6 360 / 161013.2 5.7 1.9
2018-May-15 10:00N 46°36' W 084°48'1010.2 330 / 151011.5 3.7 0.7
2018-May-15 09:00N 46°30' W 084°36'8 8.3 310 / 131010.2 6.3 2.4
2018-May-15 08:00N 46°30' W 084°24'4 4.1 250 / 61009.5 10.6 4.1
2018-May-15 07:00N 46°30' W 084°18'0 0.0 270 / 51008.9 11.5 4.1
2018-May-15 06:00N 46°30' W 084°18'0 0.0 080 / 11008.6 12.3 3.9
2018-May-15 05:00N 46°30' W 084°18'7 7.3 160 / 11008.6 13.1 4.0
2018-May-15 04:00N 46°24' W 084°12'9 9.5 230 / 51008.9 15.6 4.6
2018-May-15 03:01N 46°16' W 084°06'2106.0
2018-May-15 03:00N 46°18' W 084°06'424.1 120 1008.9 15.7 5.7
2018-May-15 02:51N 46°14' W 084°06'3 8.0
2018-May-15 02:30N 46°12' W 084°07'510.0
2018-May-15 02:00N 46°08' W 084°01'2520.8
2018-May-15 02:00N 46°06' W 084°00'2 4.3 250 / 61009.3 17.4 7.2
2018-May-15 01:30N 46°04' W 083°60'510.6
2018-May-15 01:00N 46°01' W 083°53'2360.2
2018-May-15 01:00N 46°00' W 083°54'4 8.2 220 / 101009.3 15.6 6.3
2018-May-15 00:30N 45°56' W 083°54'4 8.7
2018-May-15 00:00N 45°54' W 084°00'625.0 260 / 151009.6 11.8 2.9
2018-May-14 23:45N 45°52' W 084°08'313.8
2018-May-14 23:30N 45°52' W 084°13'713.9
2018-May-14 23:00N 45°51' W 084°23'3231.2
2018-May-14 23:00N 45°54' W 084°24'714.5 290 / 111009.9 9.6 2.8
2018-May-14 22:30N 45°51' W 084°33'713.4
2018-May-14 22:00N 45°49' W 084°42'184.8
2018-May-14 22:00N 45°48' W 084°42'714.8 290 / 141009.9 11.4 4.9
2018-May-14 21:30N 45°49' W 084°52'714.0
2018-May-14 21:00N 45°50' W 085°02'2141.0
2018-May-14 21:00N 45°48' W 085°00'612.6 260 / 81010.6 9.4 5.1
2018-May-14 20:30N 45°47' W 085°09'612.0
2018-May-14 20:00N 45°42' W 085°13'137.2
2018-May-14 20:00N 45°42' W 085°12'715.4 210 / 61010.6 7.3 3.5
2018-May-14 19:30N 45°36' W 085°19'714.0
2018-May-14 19:00N 45°31' W 085°25'152.2
2018-May-14 19:00N 45°30' W 085°24'714.2 240 / 51011.0 6.8 2.4
2018-May-14 18:30N 45°25' W 085°31'613.0
2018-May-14 18:00N 45°20' W 085°36'2117.0
2018-May-14 18:00N 45°18' W 085°36'611.9 220 / 141011.6 10.7 2.3
2018-May-14 17:30N 45°14' W 085°42'714.1
2018-May-14 17:00N 45°09' W 085°48'3234.0
2018-May-14 17:00N 45°12' W 085°48'1514.7 220 / 201012.7 9.5 2.6
2018-May-14 16:00N 45°00' W 086°00'1514.7 210 / 171014.3 7.3 3.5
2018-May-14 15:00N 44°48' W 086°12'1514.7 210 / 131014.7 7.7 3.4
2018-May-14 14:00N 44°36' W 086°24'1312.7 190 / 111014.0 5.3 3.4
2018-May-14 13:00N 44°24' W 086°30'1312.7 190 / 161014.3 6.8 3.4
2018-May-14 12:00N 44°12' W 086°36'1818.0 200 / 141014.7 6.8 3.2
2018-May-14 11:00N 43°54' W 086°36'1312.8 190 / 121014.3 5.8 3.2
2018-May-14 10:00N 43°42' W 086°42'1212.0 170 / 131014.0 5.5 3.6
2018-May-14 09:00N 43°30' W 086°42'1918.5 180 / 131014.0 4.8 3.5
2018-May-14 08:00N 43°12' W 086°48'9113.0 160 / 101013.7 4.5 3.7
2018-May-14 01:00N 41°42' W 087°06'6 6.0 080 / 101014.0 10.1 12.1
2018-May-14 00:00N 41°36' W 087°06'0 0.0 030 / 101014.7 10.7 11.6
2018-May-13 23:00N 41°36' W 087°06'0 0.0 170 / 41015.7 11.9 11.4
2018-May-13 22:00N 41°36' W 087°06'0 0.0 020 / 71017.4 9.4 11.4
2018-May-13 21:00N 41°36' W 087°06'0 0.0 030 / 51017.4 9.8 11.3
2018-May-13 20:00N 41°36' W 087°06'0 0.0 350 / 81017.7 9.1 11.2
2018-May-13 19:00N 41°36' W 087°06'0 0.0 340 / 91018.1 8.7 11.1
2018-May-13 18:00N 41°36' W 087°06'0 0.0 340 / 61017.7 10.9 11.0
2018-May-13 17:00N 41°36' W 087°06'0 0.0 350 / 51018.1 10.4 11.0
2018-May-13 16:00N 41°36' W 087°06'0 0.0 320 / 31018.1 13.4 10.9
2018-May-13 15:00N 41°36' W 087°06'0 0.0 020 / 41017.7 12.5 10.9
2018-May-13 14:00N 41°36' W 087°06'0 0.0 050 / 91018.1 10.7 11.0
2018-May-13 13:00N 41°36' W 087°06'0 0.0 080 / 61017.7 9.4 11.1
2018-May-13 12:00N 41°36' W 087°06'0 0.0 010 / 71017.4 9.0 11.2
2018-May-13 11:00N 41°36' W 087°06'0 0.0 150 / 51017.1 11.8 11.2
2018-May-13 10:00N 41°36' W 087°06'0 0.0 150 / 151015.7 11.8 11.1
2018-May-13 09:00N 41°36' W 087°06'0 0.0 130 / 101016.7 11.5 11.0
2018-May-13 08:00N 41°36' W 087°06'0 0.0 050 / 101017.1 10.0 11.0
2018-May-13 07:00N 41°36' W 087°06'0 0.0 020 / 71018.1 10.0 11.1
2018-May-13 06:00N 41°36' W 087°06'0 0.0 010 / 91018.1 10.5 10.8
2018-May-13 05:00N 41°36' W 087°06'7 7.5 050 / 61017.7 11.0 11.8
2018-May-13 04:00N 41°42' W 087°12'0 0.0 060 / 141018.1 9.7 9.3
2018-May-13 03:00N 41°42' W 087°12'0 0.0 080 / 121019.1 5.4 8.7 9.2
2018-May-13 02:00N 41°42' W 087°12'0 0.0 320 / 71020.1 7.9 9.2
2018-May-13 01:00N 41°42' W 087°12'0 0.0 340 / 71019.8 7.9 9.1
2018-May-13 00:00N 41°42' W 087°12'0 0.0 060 / 21019.8 8.1 9.1
2018-May-12 23:00N 41°42' W 087°12'0 0.0 020 / 111019.1 7.2 9.0
2018-May-12 22:00N 41°42' W 087°12'0 0.0 080 / 151016.7 7.3 9.1
2018-May-12 21:00N 41°42' W 087°12'0 0.0 350 / 151019.8 6.8 8.9
2018-May-12 20:00N 41°42' W 087°12'0 0.0 010 / 121020.1 6.1 8.9
2018-May-12 19:00N 41°42' W 087°12'4 4.5 010 / 51020.4 8.2 9.1
2018-May-12 18:00N 41°42' W 087°06'1110.8 040 / 141019.8 7.2 8.7
2018-May-12 17:00N 41°48' W 086°54'7 7.5 360 / 161020.4 7.1 8.1
2018-May-12 16:00N 41°54' W 086°48'1515.0 010 / 141019.8 9.6 7.7
2018-May-12 15:00N 42°06' W 086°36'7 7.5 040 / 131019.1 8.9 8.9
2018-May-12 14:00N 42°12' W 086°30'1212.0 050 / 121019.1 7.7 8.1
2018-May-12 13:00N 42°24' W 086°30'6 6.0 070 / 101019.4 6.5 4.8
2018-May-12 12:00N 42°30' W 086°30'1212.0 060 / 121018.4 5.6 3.6
2018-May-12 11:00N 42°42' W 086°30'1212.0 060 / 111018.4 5.4 3.2
2018-May-12 10:00N 42°54' W 086°30'1212.0 070 / 151017.7 5.2 3.1
2018-May-12 09:00N 43°06' W 086°30'7 7.4 060 / 161017.7 4.8 3.0
2018-May-12 08:00N 43°12' W 086°36'1212.0 060 / 161018.1 4.7 3.0
2018-May-12 07:00N 43°24' W 086°36'1312.8 070 / 181018.1 4.6 2.8
2018-May-12 06:00N 43°36' W 086°42'6 6.0 050 / 131019.1 5.0 2.8
2018-May-12 05:00N 43°42' W 086°42'1212.0 060 / 111019.4 4.5 3.0
2018-May-12 04:00N 43°54' W 086°42'1212.0 070 / 121019.8 5.4 4.9 3.1
2018-May-12 03:00N 44°06' W 086°42'7 7.4 070 / 141019.8 4.8 3.2
2018-May-12 02:00N 44°12' W 086°36'1212.0 070 / 121020.1 4.8 3.3
2018-May-12 01:00N 44°24' W 086°36'1312.7 040 / 61020.4 3.9 3.1
2018-May-12 00:00N 44°36' W 086°30'7 7.4 040 / 81020.110.8 4.0 2.9
2018-May-11 23:00N 44°42' W 086°24'1212.0 050 / 51020.8 5.4 2.6
2018-May-11 22:00N 44°54' W 086°24'4611.0 050 / 81020.8 4.6 2.8
2018-May-11 17:50N 45°38' W 086°04'413.2
2018-May-11 17:30N 45°41' W 085°60'713.1
2018-May-11 17:00N 45°46' W 085°53'2381.7
2018-May-11 17:00N 45°48' W 085°54'612.6 060 / 61023.8 5.4 2.4
2018-May-11 16:30N 45°49' W 085°45'613.1
2018-May-11 16:00N 45°52' W 085°37'2111.7
2018-May-11 16:00N 45°54' W 085°36'510.9 080 / 71024.5 6.5 2.9
2018-May-11 15:31N 45°54' W 085°28'612.9
2018-May-11 15:00N 45°53' W 085°19'187.0
2018-May-11 15:00N 45°54' W 085°18'612.3 100 / 71024.8 6.4 3.9
2018-May-11 14:30N 45°52' W 085°10'713.9
2018-May-11 14:00N 45°54' W 085°00'35534.5 100 / 111024.5 5.6 3.6
2018-May-11 13:59N 45°51' W 085°00'713.5
2018-May-11 13:30N 45°50' W 084°51'713.6
2018-May-11 13:00N 45°49' W 084°41'1119.0
2018-May-11 13:00N 45°48' W 084°42'714.5 110 / 81024.2 4.7 3.6
2018-May-11 12:30N 45°51' W 084°33'713.2
2018-May-11 12:01N 45°52' W 084°24'294.9
2018-May-11 12:00N 45°54' W 084°24'714.1 080 / 81023.5 3.1 2.1
2018-May-11 11:30N 45°53' W 084°14'613.0
2018-May-11 11:00N 45°54' W 084°05'165.2
2018-May-11 11:00N 45°54' W 084°06'814.3 060 / 71023.5 2.9 1.8
2018-May-11 10:26N 45°56' W 083°55'4 9.2
2018-May-11 10:00N 46°00' W 083°54'7 7.3 030 / 61023.5 2.5 4.3
2018-May-11 09:00N 46°06' W 084°00'1010.3 340 / 71023.2 1.8 6.5
2018-May-11 08:00N 46°12' W 084°12'6 6.0 340 / 41022.8 -0.2 4.1
2018-May-11 07:00N 46°18' W 084°12'1312.7 290 / 41022.1 0.2 2.6
2018-May-11 06:00N 46°30' W 084°18'4 2.1 270 / 21021.5 1.3 2.1
2018-May-11 04:00N 46°30' W 084°24'8 8.3 320 / 151021.0 1.9 2.5
2018-May-11 03:00N 46°30' W 084°36'1010.2 330 / 81021.3 1.9 1.2
2018-May-11 02:00N 46°36' W 084°48'1312.7 320 / 151020.3 2.2 0.4
2018-May-11 01:00N 46°48' W 084°54'1413.7 320 / 211019.3 2.2 1.0
2018-May-11 00:00N 46°54' W 085°12'1616.4 310 / 201019.0 2.1 0.5
2018-May-10 23:00N 46°54' W 085°36'3912.9 300 / 191019.0 2.0 1.0
2018-May-10 20:00N 47°06' W 086°30'1413.6 300 / 181019.0 1.5 0.9
2018-May-10 19:00N 47°12' W 086°48'1212.2 320 / 191018.6 1.3 1.0
2018-May-10 18:00N 47°12' W 087°06'1413.6 320 / 161017.9 1.3 1.1
2018-May-10 17:00N 47°18' W 087°24'1413.6 330 / 191016.9 1.2 1.2
2018-May-10 16:00N 47°24' W 087°42'   330 / 201016.3 1.1 1.2
Track history (hours):
 
Tides and Currents Weather Stations Pressure Air Temp Water Temp Dewpoint Dewpoint Depression Visibility Wind Speed Wind Dir Waves Ship Positions

Stewart J. Cort

Owner: THE INTERLAKE STEAMSHIP COMPANY, Middleburg Heights, OH. More information available from US FCC via Universal Licensing System and Coast Guard Vessel Documentation Center.

Last reported at 2018-May-20 16:00 UTC. Time now 2018-May-20 17:18 UTC.
Position N 41°36' W 087°06'.

Length 305 m; draft 8.6 m.

Type: Cargo ship. MMSI: 367050550.

Wind from 010 at 11 knots

Barometer 1022.8 mb
Air temperature 6.5 ° C
Water temperature 12.2 ° C

Date/timePositionNaut miles runAvg speedWind from/ knotsBaromVisibWave heightAir tempDewpointWater temp
2018-May-20 16:00N 41°36' W 087°06'0 0.0 010 / 111022.8 6.5 12.2
2018-May-20 15:00N 41°36' W 087°06'0 0.0 010 / 91022.5 6.9 12.1
2018-May-20 14:00N 41°36' W 087°06'0 0.0 020 / 51022.5 7.0 12.2
2018-May-20 13:00N 41°36' W 087°06'0 0.0 010 / 101021.1 6.9 12.2
2018-May-20 12:00N 41°36' W 087°06'0 0.0 020 / 71020.8 7.5 12.2
2018-May-20 11:00N 41°36' W 087°06'0 0.0 350 / 91020.1 7.4 12.1
2018-May-20 10:00N 41°36' W 087°06'0 0.0 340 / 101019.4 7.9 12.0
2018-May-20 09:00N 41°36' W 087°06'0 0.0 020 / 121018.8 8.7 11.9
2018-May-20 08:00N 41°36' W 087°06'0 0.0 010 / 61018.4 8.9 11.8
2018-May-20 07:00N 41°36' W 087°06'0 0.0 040 / 101018.4 9.8 11.6
2018-May-20 06:00N 41°36' W 087°06'0 0.0 030 / 81017.7 12.0 11.3
2018-May-20 05:00N 41°36' W 087°06'0 0.0 050 / 81016.4 15.9 11.2
2018-May-20 04:00N 41°36' W 087°06'0 0.0 320 / 21017.1 16.0 11.2
2018-May-20 03:00N 41°36' W 087°06'0 0.0 170 / 31016.7 15.9 11.1
2018-May-20 02:00N 41°36' W 087°06'6 6.0 070 / 51015.4 15.7 12.7
2018-May-20 01:00N 41°42' W 087°06'1212.0 070 / 101014.7 13.0 9.9
2018-May-20 00:00N 41°54' W 087°06'10312.9 080 / 61014.3 11.0 5.7
2018-May-19 16:00N 43°36' W 086°48'1212.0 020 / 121011.3 5.9 3.4
2018-May-19 15:00N 43°48' W 086°48'1312.8 020 / 81012.7 0.5 5.5 3.4
2018-May-19 14:00N 44°00' W 086°42'1918.5 020 / 101012.7 5.5 3.4
2018-May-19 13:00N 44°18' W 086°36'1312.7 010 / 121013.0 5.2 3.3
2018-May-19 12:00N 44°30' W 086°30'1212.0 340 / 131013.3 6.0 3.5
2018-May-19 11:00N 44°42' W 086°30'1312.7 070 / 101013.0 9.1 3.9
2018-May-19 10:00N 44°54' W 086°24'1312.7 110 / 101013.7 9.3 3.5
2018-May-19 09:00N 45°06' W 086°18'1713.4 090 / 111014.310.8 10.3 3.2
2018-May-19 07:46N 45°22' W 086°12'1213.0
2018-May-19 06:50N 45°33' W 086°07'512.5
2018-May-19 06:29N 45°37' W 086°04'613.0
2018-May-19 06:00N 45°42' W 085°58'1103.2
2018-May-19 06:00N 45°42' W 086°00'714.9 110 / 161018.4 8.3 3.2
2018-May-19 05:30N 45°47' W 085°52'612.8
2018-May-19 05:00N 45°50' W 085°44'3279.4
2018-May-19 05:00N 45°48' W 085°48'1020.1 120 / 111019.8 9.5 5.5
2018-May-19 04:30N 45°53' W 085°36'612.5
2018-May-19 04:00N 45°54' W 085°27'2147.8
2018-May-19 04:00N 45°54' W 085°30'917.7 100 / 181020.1 9.8 5.9
2018-May-19 03:30N 45°53' W 085°18'612.9
2018-May-19 03:00N 45°52' W 085°09'3207.2
2018-May-19 03:00N 45°54' W 085°12'919.3 090 / 181020.8 9.3 6.3
2018-May-19 02:30N 45°51' W 084°59'713.1
2018-May-19 02:00N 45°50' W 084°50'3212.7
2018-May-19 02:00N 45°48' W 084°54'919.0 100 / 171021.1 10.0 6.1
2018-May-19 01:30N 45°49' W 084°41'4 8.7
2018-May-19 01:00N 45°51' W 084°35'3335.9
2018-May-19 01:00N 45°48' W 084°36'816.1 110 / 131021.8 8.3 4.5
2018-May-19 00:30N 45°52' W 084°27'612.1
2018-May-19 00:00N 45°54' W 084°18'1142.0 120 / 161022.8 6.4 2.7
2018-May-18 23:59N 45°53' W 084°17'712.9
2018-May-18 23:29N 45°54' W 084°07'510.7
2018-May-18 23:00N 45°54' W 084°00'7 7.3 100 / 121023.8 6.7 5.7
2018-May-18 22:00N 46°00' W 083°54'0 0.0 130 / 141024.2 13.8 7.0
2018-May-18 21:00N 46°00' W 083°54'7 7.3 120 / 161024.8 12.8 8.3
2018-May-18 20:00N 46°06' W 084°00'1010.3 140 / 141025.9 12.0 8.0
2018-May-18 19:00N 46°12' W 084°12'6 6.0 120 / 171025.9 12.6 5.8
2018-May-18 18:00N 46°18' W 084°12'1312.7 120 / 171026.9 12.6 4.3
2018-May-18 17:00N 46°30' W 084°18'0 0.0 130 / 181026.9 11.9 3.2
2018-May-18 16:00N 46°30' W 084°18'4 4.1 130 / 141027.6 12.4 3.8
2018-May-18 15:00N 46°30' W 084°24'0 0.0 110 / 181028.1 11.8 3.2
2018-May-18 14:00N 46°30' W 084°24'4 4.1 100 / 161028.8 11.1 3.1
2018-May-18 13:00N 46°30' W 084°30'8 8.3 130 / 181028.4 10.1 1.9
2018-May-18 12:00N 46°30' W 084°42'1312.7 120 / 201027.1 6.2 1.0
2018-May-18 11:00N 46°42' W 084°48'1413.7 110 / 111026.8 5.7 0.9
2018-May-18 10:00N 46°48' W 085°06'1010.2 120 / 91026.1 3.5 1.9
2018-May-18 09:00N 46°54' W 085°18'1413.7 110 / 91026.110.8 4.1 1.6
2018-May-18 08:00N 47°00' W 085°36'6613.1 110 / 101025.4 2.7 1.5
2018-May-18 03:00N 47°24' W 087°06'1413.6 050 / 121025.4 2.6 1.8
2018-May-18 02:00N 47°30' W 087°24'1212.2 020 / 111025.4 2.8 2.0
2018-May-18 01:00N 47°30' W 087°42'1413.5 030 / 101025.4 3.6 2.3
2018-May-18 00:00N 47°36' W 088°00'1212.1 060 / 101025.7 3.6 1.7
2018-May-17 23:00N 47°36' W 088°18'1413.5 060 / 111026.1 3.2 1.6
2018-May-17 22:00N 47°30' W 088°36'1616.2 060 / 131025.7 3.3 1.7
2018-May-17 21:00N 47°30' W 089°00'1413.6 090 / 221025.4 3.6 2.0
2018-May-17 20:00N 47°24' W 089°18'1212.2 050 / 171025.7 3.5 1.9
2018-May-17 19:00N 47°24' W 089°36'1413.6 050 / 181025.7 3.4 2.0
2018-May-17 18:00N 47°18' W 089°54'1212.2 050 / 161026.410.8 3.5 2.1
2018-May-17 17:00N 47°18' W 090°12'1413.6 040 / 171026.1 3.4 2.2
2018-May-17 16:00N 47°12' W 090°30'1212.2 040 / 161026.1 3.4 2.7
2018-May-17 15:00N 47°12' W 090°48'1010.1 060 / 171024.7 3.4 2.9
2018-May-17 14:00N 47°06' W 091°00'1413.7 050 / 181024.7 3.2 2.7
2018-May-17 13:00N 47°00' W 091°18'1214.6 050 / 161024.0 2.9 2.5
2018-May-17 12:12N 46°54' W 091°32'313.3
2018-May-17 12:00N 46°54' W 091°36'247.0 050 / 201023.0 3.1 2.6
2018-May-17 11:57N 46°52' W 091°36'512.4
2018-May-17 11:30N 46°49' W 091°43'612.3
2018-May-17 11:00N 46°46' W 091°51'3214.8
2018-May-17 11:00N 46°48' W 091°48'917.7 050 / 231022.4 4.0 4.5
2018-May-17 10:30N 46°43' W 091°59'2 3.3
2018-May-17 10:00N 46°42' W 092°00'1 6.6 040 / 141022.4 5.0 11.9
2018-May-17 09:52N 46°42' W 092°01'0 0.0
2018-May-17 09:28N 46°42' W 092°01'1 1.6
2018-May-17 09:00N 46°42' W 092°00'139.5 250 / 41021.3 5.6 13.8
2018-May-17 08:58N 46°42' W 092°01'0 0.0
2018-May-17 08:19N 46°42' W 092°01'1 2.4
2018-May-17 08:00N 46°42' W 092°00'138.3 280 / 41020.7 5.6 12.7
2018-May-17 07:58N 46°42' W 092°01'0 0.0
2018-May-17 07:28N 46°42' W 092°01'1 1.6
2018-May-17 07:00N 46°42' W 092°00'139.1 310 / 31021.3 5.9 13.9
2018-May-17 06:58N 46°42' W 092°01'0 0.0
2018-May-17 06:28N 46°42' W 092°01'1 1.6
2018-May-17 06:00N 46°42' W 092°00'111.3 210 / 31021.3 6.4 13.3
2018-May-17 05:55N 46°42' W 092°01'0 0.0
2018-May-17 05:28N 46°42' W 092°01'1 1.6
2018-May-17 05:00N 46°42' W 092°00'140.4 140 / 31020.0 7.1 13.0
2018-May-17 04:58N 46°42' W 092°01'0 0.0
2018-May-17 04:28N 46°42' W 092°01'1 1.6
2018-May-17 04:00N 46°42' W 092°00'140.8 260 / 31019.6 7.3 12.9
2018-May-17 03:58N 46°42' W 092°01'0 0.0
2018-May-17 03:28N 46°42' W 092°01'1 1.6
2018-May-17 03:00N 46°42' W 092°00'138.0 340 / 21019.0 7.7 13.0
2018-May-17 02:58N 46°42' W 092°01'0 0.0
2018-May-17 02:28N 46°42' W 092°01'1 1.6
2018-May-17 02:00N 46°42' W 092°00'140.6 350 / 31017.9 8.0 13.1
2018-May-17 01:58N 46°42' W 092°01'0 0.0
2018-May-17 01:28N 46°42' W 092°01'1 1.6
2018-May-17 01:00N 46°42' W 092°00'137.7 080 / 31016.9 8.3 13.0
2018-May-17 00:58N 46°42' W 092°01'0 0.0
2018-May-17 00:28N 46°42' W 092°01'1 1.6
2018-May-17 00:00N 46°42' W 092°00'141.0 290 / 31015.6 9.4 12.6
2018-May-16 23:58N 46°42' W 092°01'0 0.0
2018-May-16 23:28N 46°42' W 092°01'1 1.6
2018-May-16 23:00N 46°42' W 092°00'139.9 260 / 21014.2 10.3 11.9
2018-May-16 22:58N 46°42' W 092°01'0 0.0
2018-May-16 22:28N 46°42' W 092°01'1 1.6
2018-May-16 22:00N 46°42' W 092°00'138.8 340 / 71011.5 28.1 11.6
2018-May-16 21:58N 46°42' W 092°01'0 0.0
2018-May-16 21:28N 46°42' W 092°01'1 1.6
2018-May-16 21:00N 46°42' W 092°00'1 6.5 330 / 31011.5 29.1 11.3
2018-May-16 20:52N 46°42' W 092°01'0 0.0
2018-May-16 20:28N 46°42' W 092°01'1 1.6
2018-May-16 20:00N 46°42' W 092°00'137.1 010 / 71011.2 29.7 10.6
2018-May-16 19:58N 46°42' W 092°01'0 0.0
2018-May-16 19:25N 46°42' W 092°01'1 1.8
2018-May-16 19:00N 46°42' W 092°00'140.4 310 / 61011.5 29.6 10.6
2018-May-16 18:58N 46°42' W 092°01'0 0.0
2018-May-16 18:28N 46°42' W 092°01'1 1.6
2018-May-16 18:00N 46°42' W 092°00'137.2 260 / 91011.5 29.3 10.5
2018-May-16 17:58N 46°42' W 092°01'0 0.0
2018-May-16 17:28N 46°42' W 092°01'1 1.6
2018-May-16 17:00N 46°42' W 092°00'138.7 210 / 81011.9 28.5 10.4
2018-May-16 16:58N 46°42' W 092°01'0 0.0
2018-May-16 16:28N 46°42' W 092°01'1 1.6
2018-May-16 16:00N 46°42' W 092°00'111.2 300 / 111012.2 26.9 10.6
2018-May-16 15:55N 46°42' W 092°01'0 0.0
2018-May-16 15:28N 46°42' W 092°01'1 1.6
2018-May-16 15:00N 46°42' W 092°00'137.0 190 / 61012.5 25.0 10.5
2018-May-16 14:58N 46°42' W 092°01'0 0.0
2018-May-16 14:25N 46°42' W 092°01'1 1.8
2018-May-16 14:00N 46°42' W 092°00'135.1 230 / 81012.5 21.4 10.2
2018-May-16 13:58N 46°42' W 092°01'0 0.0
2018-May-16 13:28N 46°42' W 092°01'1 1.6
2018-May-16 13:00N 46°42' W 092°00'137.2 230 / 81012.9 17.9 9.8
2018-May-16 12:58N 46°42' W 092°01'0 0.0
2018-May-16 12:28N 46°42' W 092°01'1 1.6
2018-May-16 12:00N 46°42' W 092°00'135.8 230 / 71012.9 14.4 9.8
2018-May-16 11:58N 46°42' W 092°01'0 0.0
2018-May-16 11:28N 46°42' W 092°01'1 1.6
2018-May-16 11:00N 46°42' W 092°00'136.2 220 / 61012.9 11.8 9.8
2018-May-16 10:58N 46°42' W 092°01'0 0.0
2018-May-16 10:28N 46°42' W 092°01'0 0.0
2018-May-16 10:00N 46°42' W 092°01'152.9
2018-May-16 10:00N 46°42' W 092°00'1 1.5 220 / 41012.9 9.0 10.1
2018-May-16 09:30N 46°43' W 092°00'5 9.2
2018-May-16 09:00N 46°45' W 091°54'3240.4
2018-May-16 09:00N 46°42' W 091°54'4 9.1 220 / 41012.9 6.1 4.7
2018-May-16 08:30N 46°46' W 091°51'611.1
2018-May-16 08:00N 46°48' W 091°44'3234.5
2018-May-16 08:00N 46°48' W 091°48'1019.9 210 / 101012.5 4.3 1.9
2018-May-16 07:31N 46°51' W 091°35'815.2
2018-May-16 07:00N 46°54' W 091°24'210.8 240 / 71012.9 2.3 1.4
2018-May-16 06:48N 46°55' W 091°22'413.9
2018-May-16 06:30N 46°57' W 091°16'713.9
2018-May-16 06:00N 47°00' W 091°07'155.8
2018-May-16 06:00N 47°00' W 091°06'1413.7 230 / 71013.5 2.1 1.5
2018-May-16 05:00N 47°06' W 090°48'1413.6 190 1013.5 2.7 2.9
2018-May-16 04:00N 47°12' W 090°30'1212.2 120 / 41014.6 2.4 2.0
2018-May-16 03:00N 47°12' W 090°12'1717.4 330 / 31014.9 2.3 2.1
2018-May-16 02:00N 47°18' W 089°48'1212.2 120 / 71013.9 2.3 1.8
2018-May-16 01:00N 47°18' W 089°30'1413.6 070 / 31015.6 3.1 1.4
2018-May-16 00:00N 47°24' W 089°12'1616.2 080 / 91016.3 4.0 1.7
2018-May-15 23:00N 47°24' W 088°48'1413.6 070 / 121017.3 3.7 1.6
2018-May-15 22:00N 47°30' W 088°30'1212.2 070 / 131018.6 4.1 1.4
2018-May-15 21:00N 47°30' W 088°12'1616.2 080 / 151019.3 2.9 1.5
2018-May-15 20:00N 47°30' W 087°48'1413.6 100 / 41021.0 3.3 1.9
2018-May-15 19:00N 47°24' W 087°30'1212.2 330 / 31021.3 3.1 1.4
2018-May-15 18:00N 47°24' W 087°12'1413.6 340 / 51021.7 3.0 1.3
2018-May-15 17:00N 47°18' W 086°54'1717.4 330 / 71021.7 3.0 1.4
2018-May-15 16:00N 47°12' W 086°30'1413.6 040 / 31020.7 3.4 1.2
2018-May-15 15:00N 47°06' W 086°12'3912.9 050 / 61019.6 4.3 1.3
2018-May-15 12:00N 46°54' W 085°18'1413.7 020 / 231014.6 5.1 1.6
2018-May-15 11:00N 46°48' W 085°00'1514.6 360 / 161013.2 5.7 1.9
2018-May-15 10:00N 46°36' W 084°48'1010.2 330 / 151011.5 3.7 0.7
2018-May-15 09:00N 46°30' W 084°36'8 8.3 310 / 131010.2 6.3 2.4
2018-May-15 08:00N 46°30' W 084°24'4 4.1 250 / 61009.5 10.6 4.1
2018-May-15 07:00N 46°30' W 084°18'0 0.0 270 / 51008.9 11.5 4.1
2018-May-15 06:00N 46°30' W 084°18'0 0.0 080 / 11008.6 12.3 3.9
2018-May-15 05:00N 46°30' W 084°18'7 7.3 160 / 11008.6 13.1 4.0
2018-May-15 04:00N 46°24' W 084°12'9 9.5 230 / 51008.9 15.6 4.6
2018-May-15 03:01N 46°16' W 084°06'2106.0
2018-May-15 03:00N 46°18' W 084°06'424.1 120 1008.9 15.7 5.7
2018-May-15 02:51N 46°14' W 084°06'3 8.0
2018-May-15 02:30N 46°12' W 084°07'510.0
2018-May-15 02:00N 46°08' W 084°01'2520.8
2018-May-15 02:00N 46°06' W 084°00'2 4.3 250 / 61009.3 17.4 7.2
2018-May-15 01:30N 46°04' W 083°60'510.6
2018-May-15 01:00N 46°01' W 083°53'2360.2
2018-May-15 01:00N 46°00' W 083°54'4 8.2 220 / 101009.3 15.6 6.3
2018-May-15 00:30N 45°56' W 083°54'4 8.7
2018-May-15 00:00N 45°54' W 084°00'625.0 260 / 151009.6 11.8 2.9
2018-May-14 23:45N 45°52' W 084°08'313.8
2018-May-14 23:30N 45°52' W 084°13'713.9
2018-May-14 23:00N 45°51' W 084°23'3231.2
2018-May-14 23:00N 45°54' W 084°24'714.5 290 / 111009.9 9.6 2.8
2018-May-14 22:30N 45°51' W 084°33'713.4
2018-May-14 22:00N 45°49' W 084°42'184.8
2018-May-14 22:00N 45°48' W 084°42'714.8 290 / 141009.9 11.4 4.9
2018-May-14 21:30N 45°49' W 084°52'714.0
2018-May-14 21:00N 45°50' W 085°02'2141.0
2018-May-14 21:00N 45°48' W 085°00'612.6 260 / 81010.6 9.4 5.1
2018-May-14 20:30N 45°47' W 085°09'612.0
2018-May-14 20:00N 45°42' W 085°13'137.2
2018-May-14 20:00N 45°42' W 085°12'715.4 210 / 61010.6 7.3 3.5
2018-May-14 19:30N 45°36' W 085°19'714.0
2018-May-14 19:00N 45°31' W 085°25'152.2
2018-May-14 19:00N 45°30' W 085°24'714.2 240 / 51011.0 6.8 2.4
2018-May-14 18:30N 45°25' W 085°31'613.0
2018-May-14 18:00N 45°20' W 085°36'2117.0
2018-May-14 18:00N 45°18' W 085°36'611.9 220 / 141011.6 10.7 2.3
2018-May-14 17:30N 45°14' W 085°42'714.1
2018-May-14 17:00N 45°09' W 085°48'3234.0
2018-May-14 17:00N 45°12' W 085°48'1514.7 220 / 201012.7 9.5 2.6
2018-May-14 16:00N 45°00' W 086°00'1514.7 210 / 171014.3 7.3 3.5
2018-May-14 15:00N 44°48' W 086°12'1514.7 210 / 131014.7 7.7 3.4
2018-May-14 14:00N 44°36' W 086°24'1312.7 190 / 111014.0 5.3 3.4
2018-May-14 13:00N 44°24' W 086°30'1312.7 190 / 161014.3 6.8 3.4
2018-May-14 12:00N 44°12' W 086°36'1818.0 200 / 141014.7 6.8 3.2
2018-May-14 11:00N 43°54' W 086°36'1312.8 190 / 121014.3 5.8 3.2
2018-May-14 10:00N 43°42' W 086°42'1212.0 170 / 131014.0 5.5 3.6
2018-May-14 09:00N 43°30' W 086°42'1918.5 180 / 131014.0 4.8 3.5
2018-May-14 08:00N 43°12' W 086°48'9113.0 160 / 101013.7 4.5 3.7
2018-May-14 01:00N 41°42' W 087°06'6 6.0 080 / 101014.0 10.1 12.1
2018-May-14 00:00N 41°36' W 087°06'0 0.0 030 / 101014.7 10.7 11.6
2018-May-13 23:00N 41°36' W 087°06'0 0.0 170 / 41015.7 11.9 11.4
2018-May-13 22:00N 41°36' W 087°06'0 0.0 020 / 71017.4 9.4 11.4
2018-May-13 21:00N 41°36' W 087°06'0 0.0 030 / 51017.4 9.8 11.3
2018-May-13 20:00N 41°36' W 087°06'0 0.0 350 / 81017.7 9.1 11.2
2018-May-13 19:00N 41°36' W 087°06'0 0.0 340 / 91018.1 8.7 11.1
2018-May-13 18:00N 41°36' W 087°06'0 0.0 340 / 61017.7 10.9 11.0
2018-May-13 17:00N 41°36' W 087°06'0 0.0 350 / 51018.1 10.4 11.0
2018-May-13 16:00N 41°36' W 087°06'0 0.0 320 / 31018.1 13.4 10.9
2018-May-13 15:00N 41°36' W 087°06'0 0.0 020 / 41017.7 12.5 10.9
2018-May-13 14:00N 41°36' W 087°06'0 0.0 050 / 91018.1 10.7 11.0
2018-May-13 13:00N 41°36' W 087°06'0 0.0 080 / 61017.7 9.4 11.1
2018-May-13 12:00N 41°36' W 087°06'0 0.0 010 / 71017.4 9.0 11.2
2018-May-13 11:00N 41°36' W 087°06'0 0.0 150 / 51017.1 11.8 11.2
2018-May-13 10:00N 41°36' W 087°06'0 0.0 150 / 151015.7 11.8 11.1
2018-May-13 09:00N 41°36' W 087°06'0 0.0 130 / 101016.7 11.5 11.0
2018-May-13 08:00N 41°36' W 087°06'0 0.0 050 / 101017.1 10.0 11.0
2018-May-13 07:00N 41°36' W 087°06'0 0.0 020 / 71018.1 10.0 11.1
2018-May-13 06:00N 41°36' W 087°06'0 0.0 010 / 91018.1 10.5 10.8
2018-May-13 05:00N 41°36' W 087°06'7 7.5 050 / 61017.7 11.0 11.8
2018-May-13 04:00N 41°42' W 087°12'0 0.0 060 / 141018.1 9.7 9.3
2018-May-13 03:00N 41°42' W 087°12'0 0.0 080 / 121019.1 5.4 8.7 9.2
2018-May-13 02:00N 41°42' W 087°12'0 0.0 320 / 71020.1 7.9 9.2
2018-May-13 01:00N 41°42' W 087°12'0 0.0 340 / 71019.8 7.9 9.1
2018-May-13 00:00N 41°42' W 087°12'0 0.0 060 / 21019.8 8.1 9.1
2018-May-12 23:00N 41°42' W 087°12'0 0.0 020 / 111019.1 7.2 9.0
2018-May-12 22:00N 41°42' W 087°12'0 0.0 080 / 151016.7 7.3 9.1
2018-May-12 21:00N 41°42' W 087°12'0 0.0 350 / 151019.8 6.8 8.9
2018-May-12 20:00N 41°42' W 087°12'0 0.0 010 / 121020.1 6.1 8.9
2018-May-12 19:00N 41°42' W 087°12'4 4.5 010 / 51020.4 8.2 9.1
2018-May-12 18:00N 41°42' W 087°06'1110.8 040 / 141019.8 7.2 8.7
2018-May-12 17:00N 41°48' W 086°54'7 7.5 360 / 161020.4 7.1 8.1
2018-May-12 16:00N 41°54' W 086°48'1515.0 010 / 141019.8 9.6 7.7
2018-May-12 15:00N 42°06' W 086°36'7 7.5 040 / 131019.1 8.9 8.9
2018-May-12 14:00N 42°12' W 086°30'1212.0 050 / 121019.1 7.7 8.1
2018-May-12 13:00N 42°24' W 086°30'6 6.0 070 / 101019.4 6.5 4.8
2018-May-12 12:00N 42°30' W 086°30'1212.0 060 / 121018.4 5.6 3.6
2018-May-12 11:00N 42°42' W 086°30'1212.0 060 / 111018.4 5.4 3.2
2018-May-12 10:00N 42°54' W 086°30'1212.0 070 / 151017.7 5.2 3.1
2018-May-12 09:00N 43°06' W 086°30'7 7.4 060 / 161017.7 4.8 3.0
2018-May-12 08:00N 43°12' W 086°36'1212.0 060 / 161018.1 4.7 3.0
2018-May-12 07:00N 43°24' W 086°36'1312.8 070 / 181018.1 4.6 2.8
2018-May-12 06:00N 43°36' W 086°42'6 6.0 050 / 131019.1 5.0 2.8
2018-May-12 05:00N 43°42' W 086°42'1212.0 060 / 111019.4 4.5 3.0
2018-May-12 04:00N 43°54' W 086°42'1212.0 070 / 121019.8 5.4 4.9 3.1
2018-May-12 03:00N 44°06' W 086°42'7 7.4 070 / 141019.8 4.8 3.2
2018-May-12 02:00N 44°12' W 086°36'1212.0 070 / 121020.1 4.8 3.3
2018-May-12 01:00N 44°24' W 086°36'1312.7 040 / 61020.4 3.9 3.1
2018-May-12 00:00N 44°36' W 086°30'7 7.4 040 / 81020.110.8 4.0 2.9
2018-May-11 23:00N 44°42' W 086°24'1212.0 050 / 51020.8 5.4 2.6
2018-May-11 22:00N 44°54' W 086°24'4611.0 050 / 81020.8 4.6 2.8
2018-May-11 17:50N 45°38' W 086°04'413.2
2018-May-11 17:30N 45°41' W 085°60'713.1
2018-May-11 17:00N 45°46' W 085°53'2381.7
2018-May-11 17:00N 45°48' W 085°54'612.6 060 / 61023.8 5.4 2.4
2018-May-11 16:30N 45°49' W 085°45'613.1
2018-May-11 16:00N 45°52' W 085°37'2111.7
2018-May-11 16:00N 45°54' W 085°36'510.9 080 / 71024.5 6.5 2.9
2018-May-11 15:31N 45°54' W 085°28'612.9
2018-May-11 15:00N 45°53' W 085°19'187.0
2018-May-11 15:00N 45°54' W 085°18'612.3 100 / 71024.8 6.4 3.9
2018-May-11 14:30N 45°52' W 085°10'713.9
2018-May-11 14:00N 45°54' W 085°00'35534.5 100 / 111024.5 5.6 3.6
2018-May-11 13:59N 45°51' W 085°00'713.5
2018-May-11 13:30N 45°50' W 084°51'713.6
2018-May-11 13:00N 45°49' W 084°41'1119.0
2018-May-11 13:00N 45°48' W 084°42'714.5 110 / 81024.2 4.7 3.6
2018-May-11 12:30N 45°51' W 084°33'713.2
2018-May-11 12:01N 45°52' W 084°24'294.9
2018-May-11 12:00N 45°54' W 084°24'714.1 080 / 81023.5 3.1 2.1
2018-May-11 11:30N 45°53' W 084°14'613.0
2018-May-11 11:00N 45°54' W 084°05'165.2
2018-May-11 11:00N 45°54' W 084°06'814.3 060 / 71023.5 2.9 1.8
2018-May-11 10:26N 45°56' W 083°55'4 9.2
2018-May-11 10:00N 46°00' W 083°54'7 7.3 030 / 61023.5 2.5 4.3
2018-May-11 09:00N 46°06' W 084°00'1010.3 340 / 71023.2 1.8 6.5
2018-May-11 08:00N 46°12' W 084°12'6 6.0 340 / 41022.8 -0.2 4.1
2018-May-11 07:00N 46°18' W 084°12'1312.7 290 / 41022.1 0.2 2.6
2018-May-11 06:00N 46°30' W 084°18'4 2.1 270 / 21021.5 1.3 2.1
2018-May-11 04:00N 46°30' W 084°24'8 8.3 320 / 151021.0 1.9 2.5
2018-May-11 03:00N 46°30' W 084°36'1010.2 330 / 81021.3 1.9 1.2
2018-May-11 02:00N 46°36' W 084°48'1312.7 320 / 151020.3 2.2 0.4
2018-May-11 01:00N 46°48' W 084°54'1413.7 320 / 211019.3 2.2 1.0
2018-May-11 00:00N 46°54' W 085°12'1616.4 310 / 201019.0 2.1 0.5
2018-May-10 23:00N 46°54' W 085°36'3912.9 300 / 191019.0 2.0 1.0
2018-May-10 20:00N 47°06' W 086°30'1413.6 300 / 181019.0 1.5 0.9
2018-May-10 19:00N 47°12' W 086°48'1212.2 320 / 191018.6 1.3 1.0
2018-May-10 18:00N 47°12' W 087°06'1413.6 320 / 161017.9 1.3 1.1
2018-May-10 17:00N 47°18' W 087°24'1413.6 330 / 191016.9 1.2 1.2
2018-May-10 16:00N 47°24' W 087°42'   330 / 201016.3 1.1 1.2

Dump ship's entire track history